sensor_id;sensor_type;location;lat;lon;timestamp;temperature;humidity
14405;DHT22;14983;50.866;4.304;2022-10-16T00:02:21;14.00;99.90
14405;DHT22;14983;50.866;4.304;2022-10-16T00:04:55;14.00;99.90
14405;DHT22;14983;50.866;4.304;2022-10-16T00:07:29;14.60;99.90
14405;DHT22;14983;50.866;4.304;2022-10-16T00:09:57;13.90;99.90
14405;DHT22;14983;50.866;4.304;2022-10-16T00:12:24;14.10;99.90
14405;DHT22;14983;50.866;4.304;2022-10-16T00:14:51;14.00;99.90
14405;DHT22;14983;50.866;4.304;2022-10-16T00:17:24;13.90;99.90
14405;DHT22;14983;50.866;4.304;2022-10-16T00:19:59;14.00;99.90
14405;DHT22;14983;50.866;4.304;2022-10-16T00:22:29;14.00;99.90
14405;DHT22;14983;50.866;4.304;2022-10-16T00:24:58;14.60;99.90
14405;DHT22;14983;50.866;4.304;2022-10-16T00:27:29;13.90;99.90
14405;DHT22;14983;50.866;4.304;2022-10-16T00:29:56;13.90;99.90
14405;DHT22;14983;50.866;4.304;2022-10-16T00:32:29;13.80;99.90
14405;DHT22;14983;50.866;4.304;2022-10-16T00:35:01;14.00;99.90
14405;DHT22;14983;50.866;4.304;2022-10-16T00:37:31;13.80;99.90
14405;DHT22;14983;50.866;4.304;2022-10-16T00:39:58;13.80;99.90
14405;DHT22;14983;50.866;4.304;2022-10-16T00:42:25;13.80;99.90
14405;DHT22;14983;50.866;4.304;2022-10-16T00:44:54;13.80;99.90
14405;DHT22;14983;50.866;4.304;2022-10-16T00:47:32;13.70;99.90
14405;DHT22;14983;50.866;4.304;2022-10-16T00:50:13;14.50;99.90
14405;DHT22;14983;50.866;4.304;2022-10-16T00:52:47;13.70;99.90
14405;DHT22;14983;50.866;4.304;2022-10-16T00:55:19;13.60;99.90
14405;DHT22;14983;50.866;4.304;2022-10-16T00:57:49;13.60;99.90
14405;DHT22;14983;50.866;4.304;2022-10-16T01:00:20;13.50;99.90
14405;DHT22;14983;50.866;4.304;2022-10-16T01:02:52;13.50;99.90
14405;DHT22;14983;50.866;4.304;2022-10-16T01:05:26;13.50;99.90
14405;DHT22;14983;50.866;4.304;2022-10-16T01:08:08;13.50;99.90
14405;DHT22;14983;50.866;4.304;2022-10-16T01:10:39;13.20;99.90
14405;DHT22;14983;50.866;4.304;2022-10-16T01:13:09;13.50;99.90
14405;DHT22;14983;50.866;4.304;2022-10-16T01:15:42;13.50;99.90
14405;DHT22;14983;50.866;4.304;2022-10-16T01:18:28;13.50;99.90
14405;DHT22;14983;50.866;4.304;2022-10-16T01:21:03;13.80;99.90
14405;DHT22;14983;50.866;4.304;2022-10-16T01:23:39;13.50;99.90
14405;DHT22;14983;50.866;4.304;2022-10-16T01:26:28;13.40;99.90
14405;DHT22;14983;50.866;4.304;2022-10-16T01:29:03;13.40;99.90
14405;DHT22;14983;50.866;4.304;2022-10-16T01:31:35;13.40;99.90
14405;DHT22;14983;50.866;4.304;2022-10-16T01:34:06;13.40;99.90
14405;DHT22;14983;50.866;4.304;2022-10-16T01:36:38;13.50;99.90
14405;DHT22;14983;50.866;4.304;2022-10-16T01:39:10;13.30;99.90
14405;DHT22;14983;50.866;4.304;2022-10-16T01:41:44;13.30;99.90
14405;DHT22;14983;50.866;4.304;2022-10-16T01:44:18;13.30;99.90
14405;DHT22;14983;50.866;4.304;2022-10-16T01:46:49;13.30;99.90
14405;DHT22;14983;50.866;4.304;2022-10-16T01:49:20;13.30;99.90
14405;DHT22;14983;50.866;4.304;2022-10-16T01:51:56;13.30;99.90
14405;DHT22;14983;50.866;4.304;2022-10-16T01:54:28;13.30;99.90
14405;DHT22;14983;50.866;4.304;2022-10-16T01:56:58;13.30;99.90
14405;DHT22;14983;50.866;4.304;2022-10-16T01:59:31;13.20;99.90
14405;DHT22;14983;50.866;4.304;2022-10-16T02:02:10;13.20;99.90
14405;DHT22;14983;50.866;4.304;2022-10-16T02:04:43;13.20;99.90
14405;DHT22;14983;50.866;4.304;2022-10-16T02:07:15;13.20;99.90
14405;DHT22;14983;50.866;4.304;2022-10-16T02:09:52;13.20;99.90
14405;DHT22;14983;50.866;4.304;2022-10-16T02:12:26;13.40;99.90
14405;DHT22;14983;50.866;4.304;2022-10-16T02:15:01;13.20;99.90
14405;DHT22;14983;50.866;4.304;2022-10-16T02:17:36;13.20;99.90
14405;DHT22;14983;50.866;4.304;2022-10-16T02:20:04;12.50;99.90
14405;DHT22;14983;50.866;4.304;2022-10-16T02:22:40;13.20;99.90
14405;DHT22;14983;50.866;4.304;2022-10-16T02:25:15;13.30;99.90
14405;DHT22;14983;50.866;4.304;2022-10-16T02:27:56;13.20;99.90
14405;DHT22;14983;50.866;4.304;2022-10-16T02:30:29;13.20;99.90
14405;DHT22;14983;50.866;4.304;2022-10-16T02:33:02;13.10;99.90
14405;DHT22;14983;50.866;4.304;2022-10-16T02:35:42;13.50;99.90
14405;DHT22;14983;50.866;4.304;2022-10-16T02:38:12;13.10;99.90
14405;DHT22;14983;50.866;4.304;2022-10-16T02:40:41;13.10;99.90
14405;DHT22;14983;50.866;4.304;2022-10-16T02:43:11;13.10;99.90
14405;DHT22;14983;50.866;4.304;2022-10-16T02:45:44;13.10;99.90
14405;DHT22;14983;50.866;4.304;2022-10-16T02:48:12;14.40;99.90
14405;DHT22;14983;50.866;4.304;2022-10-16T02:51:10;12.70;99.90
14405;DHT22;14983;50.866;4.304;2022-10-16T02:53:48;13.10;99.90
14405;DHT22;14983;50.866;4.304;2022-10-16T02:56:23;13.70;99.90
14405;DHT22;14983;50.866;4.304;2022-10-16T02:58:54;13.10;99.90
14405;DHT22;14983;50.866;4.304;2022-10-16T03:01:27;13.10;99.90
14405;DHT22;14983;50.866;4.304;2022-10-16T03:04:00;14.10;99.90
14405;DHT22;14983;50.866;4.304;2022-10-16T03:06:28;13.50;99.90
14405;DHT22;14983;50.866;4.304;2022-10-16T03:08:59;13.10;99.90
14405;DHT22;14983;50.866;4.304;2022-10-16T03:11:27;13.60;99.90
14405;DHT22;14983;50.866;4.304;2022-10-16T03:13:56;13.20;99.90
14405;DHT22;14983;50.866;4.304;2022-10-16T03:16:26;13.10;99.90
14405;DHT22;14983;50.866;4.304;2022-10-16T03:19:00;13.20;99.90
14405;DHT22;14983;50.866;4.304;2022-10-16T03:21:33;13.80;99.90
14405;DHT22;14983;50.866;4.304;2022-10-16T03:24:08;13.20;99.90
14405;DHT22;14983;50.866;4.304;2022-10-16T03:26:41;13.20;99.90
14405;DHT22;14983;50.866;4.304;2022-10-16T03:29:13;13.20;99.90
14405;DHT22;14983;50.866;4.304;2022-10-16T03:31:46;13.20;99.90
14405;DHT22;14983;50.866;4.304;2022-10-16T03:34:16;13.20;99.90
14405;DHT22;14983;50.866;4.304;2022-10-16T03:36:45;13.20;99.90
14405;DHT22;14983;50.866;4.304;2022-10-16T03:39:13;13.20;99.90
14405;DHT22;14983;50.866;4.304;2022-10-16T03:41:43;13.20;99.90
14405;DHT22;14983;50.866;4.304;2022-10-16T03:44:17;13.40;99.90
14405;DHT22;14983;50.866;4.304;2022-10-16T03:46:52;12.80;99.90
14405;DHT22;14983;50.866;4.304;2022-10-16T03:49:23;13.30;99.90
14405;DHT22;14983;50.866;4.304;2022-10-16T03:51:57;13.30;99.90
14405;DHT22;14983;50.866;4.304;2022-10-16T03:54:37;13.20;99.90
14405;DHT22;14983;50.866;4.304;2022-10-16T03:57:05;13.20;99.90
14405;DHT22;14983;50.866;4.304;2022-10-16T03:59:35;13.20;99.90
14405;DHT22;14983;50.866;4.304;2022-10-16T04:02:05;14.30;99.90
14405;DHT22;14983;50.866;4.304;2022-10-16T04:04:32;13.70;99.90
14405;DHT22;14983;50.866;4.304;2022-10-16T04:07:00;13.20;99.90
14405;DHT22;14983;50.866;4.304;2022-10-16T04:09:33;13.20;99.90
14405;DHT22;14983;50.866;4.304;2022-10-16T04:12:01;13.20;99.90
14405;DHT22;14983;50.866;4.304;2022-10-16T04:14:30;13.20;99.90
14405;DHT22;14983;50.866;4.304;2022-10-16T04:17:00;13.20;99.90
14405;DHT22;14983;50.866;4.304;2022-10-16T04:19:32;13.10;99.90
14405;DHT22;14983;50.866;4.304;2022-10-16T04:22:00;13.10;99.90
14405;DHT22;14983;50.866;4.304;2022-10-16T04:24:27;13.20;99.90
14405;DHT22;14983;50.866;4.304;2022-10-16T04:26:54;13.10;99.90
14405;DHT22;14983;50.866;4.304;2022-10-16T04:29:24;13.10;99.90
14405;DHT22;14983;50.866;4.304;2022-10-16T04:31:57;13.60;99.90
14405;DHT22;14983;50.866;4.304;2022-10-16T04:34:31;13.10;99.90
14405;DHT22;14983;50.866;4.304;2022-10-16T04:36:59;13.10;99.90
14405;DHT22;14983;50.866;4.304;2022-10-16T04:39:26;13.10;99.90
14405;DHT22;14983;50.866;4.304;2022-10-16T04:41:54;13.10;99.90
14405;DHT22;14983;50.866;4.304;2022-10-16T04:44:30;13.10;99.90
14405;DHT22;14983;50.866;4.304;2022-10-16T04:47:03;13.10;99.90
14405;DHT22;14983;50.866;4.304;2022-10-16T04:49:37;13.00;99.90
14405;DHT22;14983;50.866;4.304;2022-10-16T04:52:07;13.60;99.90
14405;DHT22;14983;50.866;4.304;2022-10-16T04:54:45;13.00;99.90
14405;DHT22;14983;50.866;4.304;2022-10-16T04:57:12;13.00;99.90
14405;DHT22;14983;50.866;4.304;2022-10-16T04:59:42;13.10;99.90
14405;DHT22;14983;50.866;4.304;2022-10-16T05:02:15;13.10;99.90
14405;DHT22;14983;50.866;4.304;2022-10-16T05:04:53;13.60;99.90
14405;DHT22;14983;50.866;4.304;2022-10-16T05:07:23;11.20;99.90
14405;DHT22;14983;50.866;4.304;2022-10-16T05:09:59;14.00;99.90
14405;DHT22;14983;50.866;4.304;2022-10-16T05:12:30;14.40;99.90
14405;DHT22;14983;50.866;4.304;2022-10-16T05:15:09;13.10;99.90
14405;DHT22;14983;50.866;4.304;2022-10-16T05:17:38;13.00;99.90
14405;DHT22;14983;50.866;4.304;2022-10-16T05:20:23;12.10;99.90
14405;DHT22;14983;50.866;4.304;2022-10-16T05:22:52;13.00;99.90
14405;DHT22;14983;50.866;4.304;2022-10-16T05:25:28;13.90;99.90
14405;DHT22;14983;50.866;4.304;2022-10-16T05:28:13;13.00;99.90
14405;DHT22;14983;50.866;4.304;2022-10-16T05:30:46;13.60;99.90
14405;DHT22;14983;50.866;4.304;2022-10-16T05:33:25;13.10;99.90
14405;DHT22;14983;50.866;4.304;2022-10-16T05:36:01;13.00;99.90
14405;DHT22;14983;50.866;4.304;2022-10-16T05:38:29;13.00;99.90
14405;DHT22;14983;50.866;4.304;2022-10-16T05:41:02;13.00;99.90
14405;DHT22;14983;50.866;4.304;2022-10-16T05:43:37;13.00;99.90
14405;DHT22;14983;50.866;4.304;2022-10-16T05:46:05;13.00;99.90
14405;DHT22;14983;50.866;4.304;2022-10-16T05:48:38;13.20;99.90
14405;DHT22;14983;50.866;4.304;2022-10-16T05:51:10;13.00;99.90
14405;DHT22;14983;50.866;4.304;2022-10-16T05:53:45;13.00;99.90
14405;DHT22;14983;50.866;4.304;2022-10-16T05:56:14;13.00;99.90
14405;DHT22;14983;50.866;4.304;2022-10-16T05:58:42;12.90;99.90
14405;DHT22;14983;50.866;4.304;2022-10-16T06:01:12;13.50;99.90
14405;DHT22;14983;50.866;4.304;2022-10-16T06:03:40;13.00;99.90
14405;DHT22;14983;50.866;4.304;2022-10-16T06:06:19;13.00;99.90
14405;DHT22;14983;50.866;4.304;2022-10-16T06:09:12;13.00;99.90
14405;DHT22;14983;50.866;4.304;2022-10-16T06:11:45;13.00;99.90
14405;DHT22;14983;50.866;4.304;2022-10-16T06:14:18;13.10;99.90
14405;DHT22;14983;50.866;4.304;2022-10-16T06:16:48;13.10;99.90
14405;DHT22;14983;50.866;4.304;2022-10-16T06:19:23;13.10;99.90
14405;DHT22;14983;50.866;4.304;2022-10-16T06:21:59;14.30;99.90
14405;DHT22;14983;50.866;4.304;2022-10-16T06:24:31;13.30;99.90
14405;DHT22;14983;50.866;4.304;2022-10-16T06:27:04;13.50;99.90
14405;DHT22;14983;50.866;4.304;2022-10-16T06:29:35;13.20;99.90
14405;DHT22;14983;50.866;4.304;2022-10-16T06:32:08;13.20;99.90
14405;DHT22;14983;50.866;4.304;2022-10-16T06:34:42;13.20;99.90
14405;DHT22;14983;50.866;4.304;2022-10-16T06:37:12;13.20;99.90
14405;DHT22;14983;50.866;4.304;2022-10-16T06:39:43;13.20;99.90
14405;DHT22;14983;50.866;4.304;2022-10-16T06:42:12;13.20;99.90
14405;DHT22;14983;50.866;4.304;2022-10-16T06:44:44;13.20;99.90
14405;DHT22;14983;50.866;4.304;2022-10-16T06:47:19;13.20;99.90
14405;DHT22;14983;50.866;4.304;2022-10-16T06:49:46;13.20;99.90
14405;DHT22;14983;50.866;4.304;2022-10-16T06:52:19;13.30;99.90
14405;DHT22;14983;50.866;4.304;2022-10-16T06:54:49;13.30;99.90
14405;DHT22;14983;50.866;4.304;2022-10-16T06:57:24;13.30;99.90
14405;DHT22;14983;50.866;4.304;2022-10-16T06:59:51;13.40;99.90
14405;DHT22;14983;50.866;4.304;2022-10-16T07:02:20;13.30;99.90
14405;DHT22;14983;50.866;4.304;2022-10-16T07:04:50;15.10;99.90
14405;DHT22;14983;50.866;4.304;2022-10-16T07:07:26;13.90;99.90
14405;DHT22;14983;50.866;4.304;2022-10-16T07:09:54;13.50;99.90
14405;DHT22;14983;50.866;4.304;2022-10-16T07:12:21;13.50;99.90
14405;DHT22;14983;50.866;4.304;2022-10-16T07:14:48;13.60;99.90
14405;DHT22;14983;50.866;4.304;2022-10-16T07:17:17;13.60;99.90
14405;DHT22;14983;50.866;4.304;2022-10-16T07:19:46;14.30;99.90
14405;DHT22;14983;50.866;4.304;2022-10-16T07:22:19;13.60;99.90
14405;DHT22;14983;50.866;4.304;2022-10-16T07:24:51;13.50;99.90
14405;DHT22;14983;50.866;4.304;2022-10-16T07:27:18;13.60;99.90
14405;DHT22;14983;50.866;4.304;2022-10-16T07:29:49;13.60;99.90
14405;DHT22;14983;50.866;4.304;2022-10-16T07:32:16;13.60;99.90
14405;DHT22;14983;50.866;4.304;2022-10-16T07:34:46;13.70;99.90
14405;DHT22;14983;50.866;4.304;2022-10-16T07:37:20;13.70;99.90
14405;DHT22;14983;50.866;4.304;2022-10-16T07:39:46;13.80;99.90
14405;DHT22;14983;50.866;4.304;2022-10-16T07:42:17;13.90;99.90
14405;DHT22;14983;50.866;4.304;2022-10-16T07:44:46;13.90;99.90
14405;DHT22;14983;50.866;4.304;2022-10-16T07:47:14;14.00;99.90
14405;DHT22;14983;50.866;4.304;2022-10-16T07:49:43;14.00;99.90
14405;DHT22;14983;50.866;4.304;2022-10-16T07:52:13;14.10;99.90
14405;DHT22;14983;50.866;4.304;2022-10-16T07:54:41;14.60;99.90
14405;DHT22;14983;50.866;4.304;2022-10-16T07:57:08;14.30;99.90
14405;DHT22;14983;50.866;4.304;2022-10-16T07:59:36;14.30;99.90
14405;DHT22;14983;50.866;4.304;2022-10-16T08:02:07;14.40;99.90
14405;DHT22;14983;50.866;4.304;2022-10-16T08:04:37;14.40;99.90
14405;DHT22;14983;50.866;4.304;2022-10-16T08:07:08;14.40;99.90
14405;DHT22;14983;50.866;4.304;2022-10-16T08:09:36;14.50;99.90
14405;DHT22;14983;50.866;4.304;2022-10-16T08:12:08;14.60;99.90
14405;DHT22;14983;50.866;4.304;2022-10-16T08:14:45;14.60;99.90
14405;DHT22;14983;50.866;4.304;2022-10-16T08:17:14;14.70;99.90
14405;DHT22;14983;50.866;4.304;2022-10-16T08:19:44;15.90;99.90
14405;DHT22;14983;50.866;4.304;2022-10-16T08:22:12;14.90;99.90
14405;DHT22;14983;50.866;4.304;2022-10-16T08:24:39;14.90;99.90
14405;DHT22;14983;50.866;4.304;2022-10-16T08:27:08;14.90;99.90
14405;DHT22;14983;50.866;4.304;2022-10-16T08:29:44;15.10;99.90
14405;DHT22;14983;50.866;4.304;2022-10-16T08:32:11;15.10;99.90
14405;DHT22;14983;50.866;4.304;2022-10-16T08:34:40;15.20;99.90
14405;DHT22;14983;50.866;4.304;2022-10-16T08:37:07;15.20;99.90
14405;DHT22;14983;50.866;4.304;2022-10-16T08:39:37;15.40;99.90
14405;DHT22;14983;50.866;4.304;2022-10-16T08:42:22;15.40;99.90
14405;DHT22;14983;50.866;4.304;2022-10-16T08:45:23;15.50;99.90
14405;DHT22;14983;50.866;4.304;2022-10-16T08:48:04;15.50;99.90
14405;DHT22;14983;50.866;4.304;2022-10-16T08:50:38;15.60;99.90
14405;DHT22;14983;50.866;4.304;2022-10-16T08:53:07;15.60;99.90
14405;DHT22;14983;50.866;4.304;2022-10-16T08:55:43;15.60;99.90
14405;DHT22;14983;50.866;4.304;2022-10-16T08:58:14;15.70;99.90
14405;DHT22;14983;50.866;4.304;2022-10-16T09:00:47;15.70;99.90
14405;DHT22;14983;50.866;4.304;2022-10-16T09:03:27;15.80;99.90
14405;DHT22;14983;50.866;4.304;2022-10-16T09:06:24;16.10;99.90
14405;DHT22;14983;50.866;4.304;2022-10-16T09:09:04;16.00;99.90
14405;DHT22;14983;50.866;4.304;2022-10-16T09:11:57;16.00;99.90
14405;DHT22;14983;50.866;4.304;2022-10-16T09:14:59;16.00;99.90
14405;DHT22;14983;50.866;4.304;2022-10-16T09:17:45;16.10;99.90
14405;DHT22;14983;50.866;4.304;2022-10-16T09:20:28;16.20;99.90
14405;DHT22;14983;50.866;4.304;2022-10-16T09:23:19;16.30;99.90
14405;DHT22;14983;50.866;4.304;2022-10-16T09:25:50;16.40;99.90
14405;DHT22;14983;50.866;4.304;2022-10-16T09:28:20;16.50;99.90
14405;DHT22;14983;50.866;4.304;2022-10-16T09:30:51;16.40;99.90
14405;DHT22;14983;50.866;4.304;2022-10-16T09:33:25;16.70;99.90
14405;DHT22;14983;50.866;4.304;2022-10-16T09:35:57;16.60;99.90
14405;DHT22;14983;50.866;4.304;2022-10-16T09:38:30;16.90;99.90
14405;DHT22;14983;50.866;4.304;2022-10-16T09:41:02;16.90;99.90
14405;DHT22;14983;50.866;4.304;2022-10-16T09:43:40;16.80;99.90
14405;DHT22;14983;50.866;4.304;2022-10-16T09:46:21;16.70;99.90
14405;DHT22;14983;50.866;4.304;2022-10-16T09:48:55;16.70;99.90
14405;DHT22;14983;50.866;4.304;2022-10-16T09:51:26;16.80;99.90
14405;DHT22;14983;50.866;4.304;2022-10-16T09:53:59;16.70;99.90
14405;DHT22;14983;50.866;4.304;2022-10-16T09:56:31;16.80;99.90
14405;DHT22;14983;50.866;4.304;2022-10-16T09:59:10;16.90;99.90
14405;DHT22;14983;50.866;4.304;2022-10-16T10:01:39;17.00;99.90
14405;DHT22;14983;50.866;4.304;2022-10-16T10:04:11;17.80;99.90
14405;DHT22;14983;50.866;4.304;2022-10-16T10:06:43;17.10;99.90
14405;DHT22;14983;50.866;4.304;2022-10-16T10:09:17;17.20;99.90
14405;DHT22;14983;50.866;4.304;2022-10-16T10:11:53;17.20;99.90
14405;DHT22;14983;50.866;4.304;2022-10-16T10:14:32;17.10;1.00
14405;DHT22;14983;50.866;4.304;2022-10-16T10:17:16;17.10;1.00
14405;DHT22;14983;50.866;4.304;2022-10-16T10:19:50;17.20;1.00
14405;DHT22;14983;50.866;4.304;2022-10-16T10:22:30;17.40;1.00
14405;DHT22;14983;50.866;4.304;2022-10-16T10:25:12;16.50;1.00
14405;DHT22;14983;50.866;4.304;2022-10-16T10:27:50;17.90;99.90
14405;DHT22;14983;50.866;4.304;2022-10-16T10:30:23;17.90;99.90
14405;DHT22;14983;50.866;4.304;2022-10-16T10:33:12;18.20;99.90
14405;DHT22;14983;50.866;4.304;2022-10-16T10:35:54;18.40;1.00
14405;DHT22;14983;50.866;4.304;2022-10-16T10:38:31;18.30;99.90
14405;DHT22;14983;50.866;4.304;2022-10-16T10:41:13;18.20;99.90
14405;DHT22;14983;50.866;4.304;2022-10-16T10:43:56;18.10;1.00
14405;DHT22;14983;50.866;4.304;2022-10-16T10:46:34;18.20;1.00
14405;DHT22;14983;50.866;4.304;2022-10-16T10:49:20;18.50;86.00
14405;DHT22;14983;50.866;4.304;2022-10-16T10:52:12;18.40;1.00
14405;DHT22;14983;50.866;4.304;2022-10-16T10:54:47;18.40;1.00
14405;DHT22;14983;50.866;4.304;2022-10-16T10:57:25;18.30;1.00
14405;DHT22;14983;50.866;4.304;2022-10-16T11:00:09;18.20;99.90
14405;DHT22;14983;50.866;4.304;2022-10-16T11:02:52;17.90;99.90
14405;DHT22;14983;50.866;4.304;2022-10-16T11:05:44;18.20;1.00
14405;DHT22;14983;50.866;4.304;2022-10-16T11:08:18;18.10;1.00
14405;DHT22;14983;50.866;4.304;2022-10-16T11:10:53;18.20;1.00
14405;DHT22;14983;50.866;4.304;2022-10-16T11:13:30;18.10;1.00
14405;DHT22;14983;50.866;4.304;2022-10-16T11:16:00;18.10;1.00
14405;DHT22;14983;50.866;4.304;2022-10-16T11:18:33;18.10;1.00
14405;DHT22;14983;50.866;4.304;2022-10-16T11:21:08;17.60;99.90
14405;DHT22;14983;50.866;4.304;2022-10-16T11:23:42;18.30;99.90
14405;DHT22;14983;50.866;4.304;2022-10-16T11:26:15;18.40;99.90
14405;DHT22;14983;50.866;4.304;2022-10-16T11:28:54;19.20;1.00
14405;DHT22;14983;50.866;4.304;2022-10-16T11:31:32;19.00;1.00
14405;DHT22;14983;50.866;4.304;2022-10-16T11:34:09;19.70;99.90
14405;DHT22;14983;50.866;4.304;2022-10-16T11:36:47;19.20;99.90
14405;DHT22;14983;50.866;4.304;2022-10-16T11:39:23;19.10;1.00
14405;DHT22;14983;50.866;4.304;2022-10-16T11:42:02;20.30;1.00
14405;DHT22;14983;50.866;4.304;2022-10-16T11:44:57;22.60;1.00
14405;DHT22;14983;50.866;4.304;2022-10-16T11:47:33;24.00;1.10
14405;DHT22;14983;50.866;4.304;2022-10-16T11:50:10;23.30;9.30
14405;DHT22;14983;50.866;4.304;2022-10-16T11:52:48;22.10;99.90
14405;DHT22;14983;50.866;4.304;2022-10-16T11:55:26;21.30;1.00
14405;DHT22;14983;50.866;4.304;2022-10-16T11:58:00;20.60;1.00
14405;DHT22;14983;50.866;4.304;2022-10-16T12:00:39;20.00;99.90
14405;DHT22;14983;50.866;4.304;2022-10-16T12:03:17;19.60;1.00
14405;DHT22;14983;50.866;4.304;2022-10-16T12:05:58;19.80;1.00
14405;DHT22;14983;50.866;4.304;2022-10-16T12:08:29;20.90;1.00
14405;DHT22;14983;50.866;4.304;2022-10-16T12:11:08;20.20;1.00
14405;DHT22;14983;50.866;4.304;2022-10-16T12:13:38;20.30;1.00
14405;DHT22;14983;50.866;4.304;2022-10-16T12:16:08;21.20;99.90
14405;DHT22;14983;50.866;4.304;2022-10-16T12:18:47;21.60;1.00
14405;DHT22;14983;50.866;4.304;2022-10-16T12:21:16;21.70;1.00
14405;DHT22;14983;50.866;4.304;2022-10-16T12:23:50;21.70;1.00
14405;DHT22;14983;50.866;4.304;2022-10-16T12:26:27;20.70;99.90
14405;DHT22;14983;50.866;4.304;2022-10-16T12:29:14;20.30;99.90
14405;DHT22;14983;50.866;4.304;2022-10-16T12:31:45;20.20;1.00
14405;DHT22;14983;50.866;4.304;2022-10-16T12:34:22;20.10;1.00
14405;DHT22;14983;50.866;4.304;2022-10-16T12:36:51;19.80;12.00
14405;DHT22;14983;50.866;4.304;2022-10-16T12:39:23;19.60;99.90
14405;DHT22;14983;50.866;4.304;2022-10-16T12:42:02;19.70;99.90
14405;DHT22;14983;50.866;4.304;2022-10-16T12:44:33;19.40;99.90
14405;DHT22;14983;50.866;4.304;2022-10-16T12:47:17;19.20;99.90
14405;DHT22;14983;50.866;4.304;2022-10-16T12:49:53;18.90;1.00
14405;DHT22;14983;50.866;4.304;2022-10-16T12:52:36;18.80;99.90
14405;DHT22;14983;50.866;4.304;2022-10-16T12:55:12;18.90;57.40
14405;DHT22;14983;50.866;4.304;2022-10-16T12:58:08;18.80;1.00
14405;DHT22;14983;50.866;4.304;2022-10-16T13:00:43;18.70;1.00
14405;DHT22;14983;50.866;4.304;2022-10-16T13:06:33;18.90;99.90
14405;DHT22;14983;50.866;4.304;2022-10-16T13:09:20;19.10;1.00
14405;DHT22;14983;50.866;4.304;2022-10-16T13:12:06;19.30;1.00
14405;DHT22;14983;50.866;4.304;2022-10-16T13:15:14;19.40;1.00
14405;DHT22;14983;50.866;4.304;2022-10-16T13:17:56;19.30;1.00
14405;DHT22;14983;50.866;4.304;2022-10-16T13:20:33;19.50;1.00
14405;DHT22;14983;50.866;4.304;2022-10-16T13:23:13;19.80;1.00
14405;DHT22;14983;50.866;4.304;2022-10-16T13:25:53;19.50;99.90
14405;DHT22;14983;50.866;4.304;2022-10-16T13:28:28;19.40;1.00
14405;DHT22;14983;50.866;4.304;2022-10-16T13:30:59;19.30;1.00
14405;DHT22;14983;50.866;4.304;2022-10-16T13:33:32;19.10;39.40
14405;DHT22;14983;50.866;4.304;2022-10-16T13:36:00;19.20;1.00
14405;DHT22;14983;50.866;4.304;2022-10-16T13:38:29;19.20;1.00
14405;DHT22;14983;50.866;4.304;2022-10-16T13:40:59;19.40;1.00
14405;DHT22;14983;50.866;4.304;2022-10-16T13:43:31;19.50;1.00
14405;DHT22;14983;50.866;4.304;2022-10-16T13:46:11;19.60;1.80
14405;DHT22;14983;50.866;4.304;2022-10-16T13:48:41;19.50;1.00
14405;DHT22;14983;50.866;4.304;2022-10-16T13:51:13;19.50;38.40
14405;DHT22;14983;50.866;4.304;2022-10-16T13:53:48;19.30;99.90
14405;DHT22;14983;50.866;4.304;2022-10-16T13:56:18;19.30;99.90
14405;DHT22;14983;50.866;4.304;2022-10-16T13:58:46;19.30;1.00
14405;DHT22;14983;50.866;4.304;2022-10-16T14:01:19;19.40;99.90
14405;DHT22;14983;50.866;4.304;2022-10-16T14:03:51;19.40;29.90
14405;DHT22;14983;50.866;4.304;2022-10-16T14:06:20;19.10;99.90
14405;DHT22;14983;50.866;4.304;2022-10-16T14:08:52;18.90;1.00
14405;DHT22;14983;50.866;4.304;2022-10-16T14:11:21;18.90;1.00
14405;DHT22;14983;50.866;4.304;2022-10-16T14:13:51;19.00;1.00
14405;DHT22;14983;50.866;4.304;2022-10-16T14:16:21;18.90;1.00
14405;DHT22;14983;50.866;4.304;2022-10-16T14:18:56;19.00;1.00
14405;DHT22;14983;50.866;4.304;2022-10-16T14:21:26;19.20;99.90
14405;DHT22;14983;50.866;4.304;2022-10-16T14:23:53;19.20;99.90
14405;DHT22;14983;50.866;4.304;2022-10-16T14:26:27;19.10;1.00
14405;DHT22;14983;50.866;4.304;2022-10-16T14:29:11;19.10;1.00
14405;DHT22;14983;50.866;4.304;2022-10-16T14:31:42;19.20;24.50
14405;DHT22;14983;50.866;4.304;2022-10-16T14:34:31;19.40;1.00
14405;DHT22;14983;50.866;4.304;2022-10-16T14:37:06;19.50;1.00
14405;DHT22;14983;50.866;4.304;2022-10-16T14:39:35;19.50;1.00
14405;DHT22;14983;50.866;4.304;2022-10-16T14:42:14;19.50;1.00
14405;DHT22;14983;50.866;4.304;2022-10-16T14:44:47;19.50;1.00
14405;DHT22;14983;50.866;4.304;2022-10-16T14:47:21;19.40;1.00
14405;DHT22;14983;50.866;4.304;2022-10-16T14:49:51;19.20;6.20
14405;DHT22;14983;50.866;4.304;2022-10-16T14:52:18;19.10;22.70
14405;DHT22;14983;50.866;4.304;2022-10-16T14:54:49;19.40;1.00
14405;DHT22;14983;50.866;4.304;2022-10-16T14:57:19;19.40;1.00
14405;DHT22;14983;50.866;4.304;2022-10-16T14:59:47;19.30;25.00
14405;DHT22;14983;50.866;4.304;2022-10-16T15:02:22;19.40;6.60
14405;DHT22;14983;50.866;4.304;2022-10-16T15:04:52;19.50;1.00
14405;DHT22;14983;50.866;4.304;2022-10-16T15:07:21;19.50;1.00
14405;DHT22;14983;50.866;4.304;2022-10-16T15:09:58;19.40;1.00
14405;DHT22;14983;50.866;4.304;2022-10-16T15:12:26;19.60;1.00
14405;DHT22;14983;50.866;4.304;2022-10-16T15:14:55;19.40;1.00
14405;DHT22;14983;50.866;4.304;2022-10-16T15:17:25;19.30;1.00
14405;DHT22;14983;50.866;4.304;2022-10-16T15:19:52;19.40;1.00
14405;DHT22;14983;50.866;4.304;2022-10-16T15:22:20;19.10;1.00
14405;DHT22;14983;50.866;4.304;2022-10-16T15:24:49;18.90;1.00
14405;DHT22;14983;50.866;4.304;2022-10-16T15:27:18;18.90;99.90
14405;DHT22;14983;50.866;4.304;2022-10-16T15:29:46;18.80;12.40
14405;DHT22;14983;50.866;4.304;2022-10-16T15:32:31;18.60;99.90
14405;DHT22;14983;50.866;4.304;2022-10-16T15:35:00;19.10;99.90
14405;DHT22;14983;50.866;4.304;2022-10-16T15:37:27;18.80;99.90
14405;DHT22;14983;50.866;4.304;2022-10-16T15:39:56;19.70;1.00
14405;DHT22;14983;50.866;4.304;2022-10-16T15:42:25;18.50;1.00
14405;DHT22;14983;50.866;4.304;2022-10-16T15:44:52;18.70;99.90
14405;DHT22;14983;50.866;4.304;2022-10-16T15:47:25;18.70;1.00
14405;DHT22;14983;50.866;4.304;2022-10-16T15:49:57;18.80;1.00
14405;DHT22;14983;50.866;4.304;2022-10-16T15:52:25;18.90;1.00
14405;DHT22;14983;50.866;4.304;2022-10-16T15:54:55;18.70;1.00
14405;DHT22;14983;50.866;4.304;2022-10-16T15:57:22;18.60;98.50
14405;DHT22;14983;50.866;4.304;2022-10-16T15:59:52;18.70;1.00
14405;DHT22;14983;50.866;4.304;2022-10-16T16:02:21;18.70;99.90
14405;DHT22;14983;50.866;4.304;2022-10-16T16:04:51;18.70;99.90
14405;DHT22;14983;50.866;4.304;2022-10-16T16:07:21;18.70;1.00
14405;DHT22;14983;50.866;4.304;2022-10-16T16:09:50;18.60;1.00
14405;DHT22;14983;50.866;4.304;2022-10-16T16:12:18;18.50;99.90
14405;DHT22;14983;50.866;4.304;2022-10-16T16:14:47;18.60;1.00
14405;DHT22;14983;50.866;4.304;2022-10-16T16:17:16;18.50;1.00
14405;DHT22;14983;50.866;4.304;2022-10-16T16:19:45;18.60;54.80